Jump to content

Thundersnow12

Members
  • Posts

    11,379
  • Joined

  • Last visited

Everything posted by Thundersnow12

  1. Don't worry. Joe called the severe thunderstorm watch last night way overzealous and the entire CWA ends up seeing warnings and scattered 60-80mph gusts. Big L.
  2. 6z HRRR came in little juicer for Chi metro. Setting the stage for ISC to be too low again. Eek that guy. They should hire Alek
  3. KMDW 172314Z 34017KT 1/8SM R31C/2400V3000FT +SN FZFG VV007 M05/M07 A2990 RMK AO2 PK WND 35026/2255 DRSN P0001 T10501072
  4. KORD 172251Z 35018G26KT 1/4SM R10L/2800V3500FT +SN VV008 M06/M09 A2991 RMK AO2 PK WND 01028/2154 SLP135 DRSN SNINCR 1/2 P0002 T10611089
  5. 3.1” total in Batavia and some of the heaviest snow I can remember. Has to be close to 2”/hr rates in that band
  6. Yeah the King is back to being dead. RAP is the new hotness
  7. Mesoscale Discussion 0147 NWS Storm Prediction Center Norman OK 0317 PM CST Thu Feb 17 2022 Areas affected...portions of central into northern Illinois Concerning...Heavy snow Valid 172117Z - 172315Z SUMMARY...Moderate to occasionally heavy snow is expected to continue for at least a few more hours across central into northern Illinois. Up to 1 inch/hour snowfall rates are possible with the heaviest bands. DISCUSSION...KLOT and KILX dual-polarimetric radar data and surface observations have shown moderate to heavy snow falling across central into northern IL over the past few hours. While the 850 mb cyclone centered over the IL/IN continues to propagate northeast, away from the mid Mississippi Valley area, 20Z mesoanalysis continues to show modest 700 mb WAA and associated frontogenesis taking place across central into northern IL, where a saturated, sub-freezing troposphere is in place. The WAA and frontogenesis will continue to foster efficient dendrite growth within a southwest-northeast oriented snow band across central into northern IL for at least a few more hours, where moderate to heavy snow is expected. Up to 1 inch/hr snowfall rates may accompany stronger portions of the snow band. ..Squitieri.. 02/17/2022
  8. Barb will be coming to a house near you
  9. Was thinking the same given sfc temps in burbs
  10. 15z RAP has to be absolute best weenie case for Chi metro. 4-6” from north to south. Been very consistent though since late last night showing 3-4”+ for the area
  11. Yeah the 6z Euro and the 11z HRRR jumped north to join the RAP which has been fairly steady all night. As mentioned the 6z nest is decent enough too.
  12. Fire everyone at NCEP. Literally everyone and bring in Joe and Alek and let them head it up.
  13. But Joe said no snow. Poor Joe. Can’t win ‘em all
  14. Euro is not pretty and SE of the 18z run.
  15. Joe said it's all sleet so not allowed to be snow.
  16. I don't know what I would do without you
×
×
  • Create New...